createdAt,value
2022-09-26T00:02:16.189Z,12.49
2022-09-26T00:06:23.655Z,12.42
2022-09-26T00:10:31.404Z,12.33
2022-09-26T00:14:39.359Z,12.25
2022-09-26T00:18:51.318Z,12.20
2022-09-26T00:22:59.129Z,12.11
2022-09-26T00:27:07.065Z,12.00
2022-09-26T00:31:17.005Z,11.90
2022-09-26T00:35:24.685Z,11.83
2022-09-26T00:39:32.526Z,11.79
2022-09-26T00:43:45.319Z,11.77
2022-09-26T00:47:58.497Z,11.75
2022-09-26T00:52:09.329Z,11.72
2022-09-26T00:56:18.921Z,11.68
2022-09-26T01:00:27.402Z,11.65
2022-09-26T01:04:38.252Z,11.64
2022-09-26T01:08:49.615Z,11.63
2022-09-26T01:12:58.784Z,11.60
2022-09-26T01:17:07.203Z,11.54
2022-09-26T01:21:42.373Z,11.49
2022-09-26T01:26:17.673Z,11.41
2022-09-26T01:30:27.488Z,11.23
2022-09-26T01:34:40.752Z,11.17
2022-09-26T01:38:59.863Z,11.11
2022-09-26T01:43:12.672Z,11.05
2022-09-26T01:47:22.977Z,11.03
2022-09-26T01:51:34.315Z,11.03
2022-09-26T01:55:43.998Z,11.04
2022-09-26T01:59:54.336Z,11.02
2022-09-26T02:04:08.807Z,10.95
2022-09-26T02:08:19.122Z,10.89
2022-09-26T02:12:32.979Z,10.82
2022-09-26T02:16:43.676Z,10.75
2022-09-26T02:20:56.189Z,10.72
2022-09-26T02:25:04.103Z,10.68
2022-09-26T02:29:11.764Z,10.57
2022-09-26T02:33:21.945Z,10.43
2022-09-26T02:37:31.410Z,10.39
2022-09-26T02:41:48.628Z,10.38
2022-09-26T02:46:03.068Z,10.36
2022-09-26T02:50:36.122Z,10.36
2022-09-26T02:54:50.061Z,10.32
2022-09-26T02:59:02.062Z,10.24
2022-09-26T03:03:17.655Z,10.21
2022-09-26T03:07:28.308Z,10.17
2022-09-26T03:11:36.832Z,10.16
2022-09-26T03:15:46.716Z,10.07
2022-09-26T03:19:59.038Z,9.97
2022-09-26T03:24:07.489Z,9.94
2022-09-26T03:28:15.346Z,9.92
2022-09-26T03:32:24.570Z,9.90
2022-09-26T03:36:33.826Z,9.88
2022-09-26T03:40:42.996Z,9.85
2022-09-26T03:44:51.084Z,9.84
2022-09-26T03:48:59.174Z,9.87
2022-09-26T03:53:06.785Z,9.92
2022-09-26T03:57:16.040Z,9.93
2022-09-26T04:01:24.842Z,9.88
2022-09-26T04:05:32.588Z,9.84
2022-09-26T04:09:40.436Z,9.86
2022-09-26T04:13:53.310Z,9.90
2022-09-26T04:18:01.563Z,9.84
2022-09-26T04:22:09.400Z,9.70
2022-09-26T04:26:23.224Z,9.70
2022-09-26T04:30:32.161Z,9.72
2022-09-26T04:34:40.900Z,9.76
2022-09-26T04:38:49.233Z,9.82
2022-09-26T04:42:59.445Z,9.91
2022-09-26T04:47:07.167Z,9.98
2022-09-26T04:51:19.457Z,10.06
2022-09-26T04:55:28.575Z,10.06
2022-09-26T04:59:36.084Z,10.11
2022-09-26T05:03:44.466Z,10.17
2022-09-26T05:07:52.726Z,10.23
2022-09-26T05:12:01.299Z,10.27
2022-09-26T05:16:11.547Z,10.36
2022-09-26T05:20:20.470Z,10.44
2022-09-26T05:24:46.787Z,10.53
2022-09-26T05:28:56.607Z,10.59
2022-09-26T05:33:05.112Z,10.69
2022-09-26T05:37:12.729Z,10.75
2022-09-26T05:41:21.797Z,10.81
2022-09-26T05:45:31.702Z,10.91
2022-09-26T05:49:41.615Z,11.03
2022-09-26T05:53:50.005Z,11.12
2022-09-26T05:57:59.419Z,11.17
2022-09-26T06:02:09.170Z,11.20
2022-09-26T06:06:18.867Z,11.27
2022-09-26T06:10:27.313Z,11.33
2022-09-26T06:14:35.116Z,11.41
2022-09-26T06:18:43.312Z,11.46
2022-09-26T06:22:50.925Z,11.53
2022-09-26T06:26:58.265Z,11.59
2022-09-26T06:31:12.319Z,11.66
2022-09-26T06:35:21.509Z,11.73
2022-09-26T06:39:35.953Z,11.79
2022-09-26T06:43:45.225Z,11.83
2022-09-26T06:47:53.062Z,11.86
2022-09-26T06:52:00.838Z,11.87
2022-09-26T06:56:08.979Z,11.90
2022-09-26T07:00:18.616Z,11.90
2022-09-26T07:04:27.733Z,11.87
2022-09-26T07:09:00.834Z,11.83
2022-09-26T07:13:05.221Z,11.79
2022-09-26T07:17:15.712Z,11.80
2022-09-26T07:21:23.594Z,11.85
2022-09-26T07:25:32.283Z,11.90
2022-09-26T07:29:42.255Z,12.04
2022-09-26T07:33:50.325Z,12.13
2022-09-26T07:37:58.495Z,12.21
2022-09-26T07:42:07.315Z,12.26
2022-09-26T07:46:31.789Z,12.33
2022-09-26T07:50:40.841Z,12.39
2022-09-26T07:54:48.290Z,12.48
2022-09-26T07:58:56.198Z,12.61
2022-09-26T08:03:05.119Z,12.70
2022-09-26T08:07:13.426Z,12.77
2022-09-26T08:11:24.563Z,12.83
2022-09-26T08:15:33.020Z,12.93
2022-09-26T08:19:41.678Z,13.00
2022-09-26T08:23:49.548Z,13.08
2022-09-26T08:28:00.475Z,13.22
2022-09-26T08:32:08.171Z,13.35
2022-09-26T08:36:17.659Z,13.41
2022-09-26T08:40:30.017Z,13.54
2022-09-26T08:44:49.842Z,13.69
2022-09-26T08:49:16.216Z,13.70
2022-09-26T08:53:27.159Z,13.79
2022-09-26T08:57:40.247Z,13.96
2022-09-26T09:01:48.667Z,14.24
2022-09-26T09:06:00.474Z,14.36
2022-09-26T09:10:12.404Z,14.47
2022-09-26T09:14:44.319Z,14.44
2022-09-26T09:18:59.259Z,14.36
2022-09-26T09:23:23.285Z,14.48
2022-09-26T09:28:01.282Z,14.69
2022-09-26T09:32:09.312Z,14.71
2022-09-26T09:36:18.860Z,14.66
2022-09-26T09:40:35.006Z,14.61
2022-09-26T09:44:47.910Z,14.59
2022-09-26T09:49:00.183Z,14.56
2022-09-26T09:53:19.240Z,14.50
2022-09-26T09:57:42.887Z,14.38
2022-09-26T10:01:52.246Z,14.28
2022-09-26T10:06:02.039Z,14.08
2022-09-26T10:10:15.429Z,13.89
2022-09-26T10:14:31.683Z,13.68
2022-09-26T10:18:59.522Z,13.52
2022-09-26T10:23:22.649Z,13.48
2022-09-26T10:27:38.058Z,13.45
2022-09-26T10:31:48.394Z,13.46
2022-09-26T10:36:05.388Z,13.44
2022-09-26T10:40:44.977Z,13.41
2022-09-26T10:44:55.010Z,13.45
2022-09-26T10:49:04.707Z,13.41
2022-09-26T10:53:14.262Z,13.37
2022-09-26T10:57:24.793Z,13.37
2022-09-26T11:01:34.520Z,13.42
2022-09-26T11:06:00.164Z,13.39
2022-09-26T11:10:12.641Z,13.33
2022-09-26T11:14:29.234Z,13.44
2022-09-26T11:18:44.945Z,13.63
2022-09-26T11:22:56.258Z,13.73
2022-09-26T11:27:19.587Z,13.73
2022-09-26T11:31:30.296Z,13.66
2022-09-26T11:35:45.882Z,13.67
2022-09-26T11:40:10.447Z,13.75
2022-09-26T11:44:51.113Z,13.73
2022-09-26T11:49:11.386Z,13.60
2022-09-26T11:53:29.907Z,13.52
2022-09-26T11:57:44.607Z,13.46
2022-09-26T12:01:57.619Z,13.45
2022-09-26T12:06:13.708Z,13.42
2022-09-26T12:10:34.233Z,13.39
2022-09-26T12:15:02.562Z,13.38
2022-09-26T12:19:20.120Z,13.40
2022-09-26T12:23:32.828Z,13.42
2022-09-26T12:27:44.615Z,13.47
2022-09-26T12:32:05.759Z,13.60
2022-09-26T12:36:22.089Z,13.70
2022-09-26T12:40:37.539Z,13.87
2022-09-26T12:45:08.496Z,14.04
2022-09-26T12:49:43.036Z,14.11
2022-09-26T12:54:02.567Z,14.31
2022-09-26T12:58:29.706Z,14.37
2022-09-26T13:02:59.691Z,14.36
2022-09-26T13:07:35.393Z,14.33
2022-09-26T13:11:50.882Z,14.32
2022-09-26T13:16:13.505Z,14.35
2022-09-26T13:20:24.264Z,14.39
2022-09-26T13:24:39.856Z,14.44
2022-09-26T13:29:12.907Z,14.50
2022-09-26T13:33:21.625Z,14.66
2022-09-26T13:37:45.889Z,14.80
2022-09-26T13:42:01.845Z,14.96
2022-09-26T13:46:18.050Z,15.19
2022-09-26T13:50:29.654Z,15.30
2022-09-26T13:54:47.117Z,15.29
2022-09-26T13:59:07.115Z,15.30
2022-09-26T14:03:43.060Z,15.44
2022-09-26T14:08:12.939Z,15.74
2022-09-26T14:12:53.126Z,15.82
2022-09-26T14:17:03.414Z,15.71
2022-09-26T14:21:23.930Z,15.70
2022-09-26T14:25:58.413Z,15.69
2022-09-26T14:30:27.413Z,15.59
2022-09-26T14:34:43.140Z,15.38
2022-09-26T14:38:51.878Z,15.34
2022-09-26T14:43:20.079Z,15.32
2022-09-26T14:47:30.568Z,15.43
2022-09-26T14:51:40.699Z,15.56
2022-09-26T14:56:01.846Z,15.62
2022-09-26T15:00:44.755Z,15.63
2022-09-26T15:05:00.757Z,15.59
2022-09-26T15:09:14.565Z,15.55
2022-09-26T15:13:33.137Z,15.67
2022-09-26T15:17:45.984Z,15.93
2022-09-26T15:21:59.149Z,16.21
2022-09-26T15:26:07.069Z,16.42
2022-09-26T15:30:22.720Z,16.56
2022-09-26T15:34:36.271Z,16.48
2022-09-26T15:38:47.048Z,16.27
2022-09-26T15:43:06.205Z,16.03
2022-09-26T15:47:37.416Z,15.81
2022-09-26T15:51:49.877Z,15.77
2022-09-26T15:56:02.138Z,15.79
2022-09-26T16:00:17.286Z,15.82
2022-09-26T16:04:27.385Z,15.79
2022-09-26T16:08:40.037Z,15.71
2022-09-26T16:12:49.462Z,15.50
2022-09-26T16:17:02.809Z,15.21
2022-09-26T16:21:21.615Z,15.03
2022-09-26T16:25:33.448Z,14.95
2022-09-26T16:29:42.610Z,14.85
2022-09-26T16:33:54.439Z,14.69
2022-09-26T16:38:07.754Z,14.51
2022-09-26T16:42:19.728Z,14.33
2022-09-26T16:46:32.658Z,14.18
2022-09-26T16:50:41.755Z,14.06
2022-09-26T16:54:52.300Z,13.90
2022-09-26T16:59:01.237Z,13.77
2022-09-26T17:03:22.892Z,13.62
2022-09-26T17:07:30.672Z,13.48
2022-09-26T17:11:38.537Z,13.38
2022-09-26T17:15:49.254Z,13.31
2022-09-26T17:19:59.527Z,13.19
2022-09-26T17:24:10.700Z,13.10
2022-09-26T17:28:21.223Z,13.04
2022-09-26T17:32:33.252Z,12.92
2022-09-26T17:36:49.530Z,12.81
2022-09-26T17:40:58.121Z,12.74
2022-09-26T17:45:07.013Z,12.68
2022-09-26T17:49:17.655Z,12.62
2022-09-26T17:53:32.780Z,12.55
2022-09-26T17:57:43.194Z,12.44
2022-09-26T18:01:56.805Z,12.37
2022-09-26T18:06:08.226Z,12.31
2022-09-26T18:10:22.458Z,12.23
2022-09-26T18:14:31.265Z,12.10
2022-09-26T18:18:38.785Z,12.03
2022-09-26T18:22:49.076Z,11.93
2022-09-26T18:27:04.098Z,11.78
2022-09-26T18:31:14.749Z,11.66
2022-09-26T18:35:24.390Z,11.59
2022-09-26T18:39:33.299Z,11.58
2022-09-26T18:43:43.670Z,11.62
2022-09-26T18:47:51.303Z,11.70
2022-09-26T18:51:58.812Z,11.76
2022-09-26T18:56:24.168Z,11.77
2022-09-26T19:00:32.017Z,11.71
2022-09-26T19:04:40.152Z,11.67
2022-09-26T19:08:50.127Z,11.60
2022-09-26T19:12:59.116Z,11.56
2022-09-26T19:17:07.669Z,11.57
2022-09-26T19:21:20.992Z,11.56
2022-09-26T19:25:31.074Z,11.59
2022-09-26T19:29:42.279Z,11.62
2022-09-26T19:33:52.108Z,11.63
2022-09-26T19:38:00.661Z,11.58
2022-09-26T19:42:08.455Z,11.53
2022-09-26T19:46:18.779Z,11.51
2022-09-26T19:50:27.371Z,11.52
2022-09-26T19:54:36.088Z,11.49
2022-09-26T19:58:46.582Z,11.42
2022-09-26T20:02:55.284Z,11.33
2022-09-26T20:07:03.136Z,11.28
2022-09-26T20:11:11.381Z,11.26
2022-09-26T20:15:21.630Z,11.23
2022-09-26T20:19:36.573Z,11.18
2022-09-26T20:23:45.328Z,11.12
2022-09-26T20:27:53.182Z,11.08
2022-09-26T20:32:05.959Z,11.06
2022-09-26T20:36:15.777Z,11.03
2022-09-26T20:40:24.459Z,11.02
2022-09-26T20:44:34.435Z,10.99
2022-09-26T20:48:44.190Z,11.02
2022-09-26T20:52:52.734Z,11.06
2022-09-26T20:57:01.539Z,11.10
2022-09-26T21:01:15.123Z,11.11
2022-09-26T21:05:24.643Z,11.10
2022-09-26T21:09:32.970Z,11.11
2022-09-26T21:13:43.221Z,11.16
2022-09-26T21:17:51.303Z,11.18
2022-09-26T21:22:02.444Z,11.14
2022-09-26T21:26:12.429Z,11.11
2022-09-26T21:30:24.111Z,11.10
2022-09-26T21:34:35.635Z,11.10
2022-09-26T21:38:47.033Z,11.12
2022-09-26T21:42:58.341Z,11.15
2022-09-26T21:47:05.991Z,11.13
2022-09-26T21:51:17.334Z,11.11
2022-09-26T21:55:27.033Z,11.09
2022-09-26T21:59:36.329Z,11.07
2022-09-26T22:03:45.326Z,11.07
2022-09-26T22:07:52.744Z,11.04
2022-09-26T22:12:00.821Z,11.00
2022-09-26T22:16:10.734Z,10.96
2022-09-26T22:20:19.064Z,10.93
2022-09-26T22:24:27.271Z,10.88
2022-09-26T22:28:34.940Z,10.82
2022-09-26T22:32:42.736Z,10.81
2022-09-26T22:36:50.125Z,10.79
2022-09-26T22:41:03.364Z,10.75
2022-09-26T22:45:12.979Z,10.71
2022-09-26T22:49:23.231Z,10.67
2022-09-26T22:53:31.444Z,10.60
2022-09-26T22:57:39.292Z,10.55
2022-09-26T23:01:47.360Z,10.52
2022-09-26T23:05:55.531Z,10.53
2022-09-26T23:10:03.857Z,10.53
2022-09-26T23:14:11.795Z,10.57
2022-09-26T23:18:19.393Z,10.58
2022-09-26T23:22:27.562Z,10.61
2022-09-26T23:26:35.995Z,10.64
2022-09-26T23:30:44.108Z,10.69
2022-09-26T23:34:51.788Z,10.73
2022-09-26T23:39:01.128Z,10.76
2022-09-26T23:43:09.281Z,10.79
2022-09-26T23:47:17.649Z,10.80
2022-09-26T23:51:25.579Z,10.77
2022-09-26T23:55:34.488Z,10.78
2022-09-26T23:59:42.163Z,10.84
